sensor_id;sensor_type;location;lat;lon;timestamp;pressure;altitude;pressure_sealevel;temperature;humidity
71857;BME280;63344;46.980;28.882;2023-02-10T00:01:38;103008.84;;;-9.31;73.69
71857;BME280;63344;46.980;28.882;2023-02-10T00:04:09;103008.84;;;-9.31;73.64
71857;BME280;63344;46.980;28.882;2023-02-10T00:06:37;103010.66;;;-9.30;74.35
71857;BME280;63344;46.980;28.882;2023-02-10T00:09:06;102999.88;;;-9.36;74.16
71857;BME280;63344;46.980;28.882;2023-02-10T00:11:33;103014.38;;;-9.37;74.45
71857;BME280;63344;46.980;28.882;2023-02-10T00:14:19;103010.78;;;-9.39;74.18
71857;BME280;63344;46.980;28.882;2023-02-10T00:16:51;103009.00;;;-9.40;74.71
71857;BME280;63344;46.980;28.882;2023-02-10T00:19:21;102990.38;;;-9.48;74.28
71857;BME280;63344;46.980;28.882;2023-02-10T00:21:49;102993.34;;;-9.53;74.15
71857;BME280;63344;46.980;28.882;2023-02-10T00:24:18;102982.03;;;-9.55;74.91
71857;BME280;63344;46.980;28.882;2023-02-10T00:26:47;102983.72;;;-9.56;74.93
71857;BME280;63344;46.980;28.882;2023-02-10T00:29:15;102993.22;;;-9.55;75.20
71857;BME280;63344;46.980;28.882;2023-02-10T00:31:43;102978.81;;;-9.53;75.37
71857;BME280;63344;46.980;28.882;2023-02-10T00:34:13;102981.91;;;-9.57;75.48
71857;BME280;63344;46.980;28.882;2023-02-10T00:36:41;102982.44;;;-9.61;75.59
71857;BME280;63344;46.980;28.882;2023-02-10T00:39:15;102981.53;;;-9.62;75.87
71857;BME280;63344;46.980;28.882;2023-02-10T00:41:42;102985.41;;;-9.67;75.53
71857;BME280;63344;46.980;28.882;2023-02-10T00:44:10;102982.59;;;-9.70;75.64
71857;BME280;63344;46.980;28.882;2023-02-10T00:46:37;102973.84;;;-9.72;75.80
71857;BME280;63344;46.980;28.882;2023-02-10T00:49:05;102971.41;;;-9.70;76.32
71857;BME280;63344;46.980;28.882;2023-02-10T00:51:33;102964.47;;;-9.71;76.49
71857;BME280;63344;46.980;28.882;2023-02-10T00:54:00;102969.22;;;-9.66;76.25
71857;BME280;63344;46.980;28.882;2023-02-10T00:56:27;102967.16;;;-9.70;76.95
71857;BME280;63344;46.980;28.882;2023-02-10T00:58:55;102963.94;;;-9.67;76.91
71857;BME280;63344;46.980;28.882;2023-02-10T01:01:22;102957.91;;;-9.68;76.90
71857;BME280;63344;46.980;28.882;2023-02-10T01:03:49;102961.38;;;-9.67;76.62
71857;BME280;63344;46.980;28.882;2023-02-10T01:06:16;102950.31;;;-9.76;76.21
71857;BME280;63344;46.980;28.882;2023-02-10T01:08:44;102951.88;;;-9.78;76.52
71857;BME280;63344;46.980;28.882;2023-02-10T01:11:13;102950.75;;;-9.82;76.69
71857;BME280;63344;46.980;28.882;2023-02-10T01:13:42;102946.13;;;-9.86;76.60
71857;BME280;63344;46.980;28.882;2023-02-10T01:16:14;102937.63;;;-9.85;76.92
71857;BME280;63344;46.980;28.882;2023-02-10T01:18:44;102943.78;;;-9.83;76.99
71857;BME280;63344;46.980;28.882;2023-02-10T01:21:14;102934.66;;;-9.79;76.92
71857;BME280;63344;46.980;28.882;2023-02-10T01:23:43;102937.38;;;-9.78;77.16
71857;BME280;63344;46.980;28.882;2023-02-10T01:26:12;102931.97;;;-9.81;76.87
71857;BME280;63344;46.980;28.882;2023-02-10T01:28:41;102931.59;;;-9.86;77.04
71857;BME280;63344;46.980;28.882;2023-02-10T01:31:11;102933.69;;;-9.92;76.89
71857;BME280;63344;46.980;28.882;2023-02-10T01:33:40;102941.38;;;-9.92;76.79
71857;BME280;63344;46.980;28.882;2023-02-10T01:36:10;102930.97;;;-9.93;76.59
71857;BME280;63344;46.980;28.882;2023-02-10T01:38:42;102924.69;;;-9.97;76.73
71857;BME280;63344;46.980;28.882;2023-02-10T01:41:11;102926.88;;;-10.02;76.44
71857;BME280;63344;46.980;28.882;2023-02-10T01:46:29;102916.63;;;-10.12;76.23
71857;BME280;63344;46.980;28.882;2023-02-10T01:49:04;102921.13;;;-10.19;76.57
71857;BME280;63344;46.980;28.882;2023-02-10T01:51:37;102928.97;;;-10.18;76.85
71857;BME280;63344;46.980;28.882;2023-02-10T01:54:08;102932.56;;;-10.16;76.54
71857;BME280;63344;46.980;28.882;2023-02-10T01:56:40;102927.28;;;-10.17;76.46
71857;BME280;63344;46.980;28.882;2023-02-10T01:59:16;102931.41;;;-10.19;77.13
71857;BME280;63344;46.980;28.882;2023-02-10T02:01:45;102923.31;;;-10.24;76.84
71857;BME280;63344;46.980;28.882;2023-02-10T02:04:14;102923.75;;;-10.30;77.26
71857;BME280;63344;46.980;28.882;2023-02-10T02:06:45;102925.16;;;-10.33;77.16
71857;BME280;63344;46.980;28.882;2023-02-10T02:09:13;102912.97;;;-10.36;77.44
71857;BME280;63344;46.980;28.882;2023-02-10T02:14:32;102920.16;;;-10.32;77.53
71857;BME280;63344;46.980;28.882;2023-02-10T02:17:13;102913.19;;;-10.33;77.57
71857;BME280;63344;46.980;28.882;2023-02-10T02:25:56;102916.38;;;-10.25;78.32
71857;BME280;63344;46.980;28.882;2023-02-10T02:37:29;102905.88;;;-10.38;77.27
71857;BME280;63344;46.980;28.882;2023-02-10T02:39:58;102915.78;;;-10.43;77.34
71857;BME280;63344;46.980;28.882;2023-02-10T02:42:29;102918.22;;;-10.45;77.14
71857;BME280;63344;46.980;28.882;2023-02-10T02:45:00;102918.72;;;-10.49;77.25
71857;BME280;63344;46.980;28.882;2023-02-10T02:51:04;102902.16;;;-10.52;76.79
71857;BME280;63344;46.980;28.882;2023-02-10T02:53:45;102901.56;;;-10.60;76.46
71857;BME280;63344;46.980;28.882;2023-02-10T02:58:57;102904.09;;;-10.70;76.52
71857;BME280;63344;46.980;28.882;2023-02-10T03:01:33;102898.72;;;-10.73;76.88
71857;BME280;63344;46.980;28.882;2023-02-10T03:04:03;102891.25;;;-10.80;77.25
71857;BME280;63344;46.980;28.882;2023-02-10T03:06:31;102898.34;;;-10.78;77.02
71857;BME280;63344;46.980;28.882;2023-02-10T03:08:59;102896.53;;;-10.79;77.32
71857;BME280;63344;46.980;28.882;2023-02-10T03:11:26;102901.78;;;-10.77;77.56
71857;BME280;63344;46.980;28.882;2023-02-10T03:13:53;102891.00;;;-10.84;77.70
71857;BME280;63344;46.980;28.882;2023-02-10T03:16:22;102892.41;;;-10.87;77.25
71857;BME280;63344;46.980;28.882;2023-02-10T03:18:50;102893.81;;;-10.91;77.27
71857;BME280;63344;46.980;28.882;2023-02-10T03:21:17;102904.06;;;-10.91;77.65
71857;BME280;63344;46.980;28.882;2023-02-10T03:23:44;102912.06;;;-10.88;77.72
71857;BME280;63344;46.980;28.882;2023-02-10T03:26:13;102902.41;;;-10.90;77.86
71857;BME280;63344;46.980;28.882;2023-02-10T03:28:40;102901.78;;;-10.88;77.96
71857;BME280;63344;46.980;28.882;2023-02-10T03:31:08;102904.59;;;-10.85;78.72
71857;BME280;63344;46.980;28.882;2023-02-10T03:33:37;102906.28;;;-10.85;78.31
71857;BME280;63344;46.980;28.882;2023-02-10T03:36:04;102898.94;;;-10.91;77.93
71857;BME280;63344;46.980;28.882;2023-02-10T03:38:32;102898.44;;;-10.97;77.39
71857;BME280;63344;46.980;28.882;2023-02-10T03:40:59;102900.34;;;-11.05;77.16
71857;BME280;63344;46.980;28.882;2023-02-10T03:43:26;102900.97;;;-11.07;77.03
71857;BME280;63344;46.980;28.882;2023-02-10T03:45:53;102892.38;;;-11.18;77.33
71857;BME280;63344;46.980;28.882;2023-02-10T03:48:21;102902.75;;;-11.16;77.38
71857;BME280;63344;46.980;28.882;2023-02-10T03:50:50;102899.94;;;-11.19;77.43
71857;BME280;63344;46.980;28.882;2023-02-10T03:53:17;102909.31;;;-11.20;77.51
71857;BME280;63344;46.980;28.882;2023-02-10T03:55:44;102905.44;;;-11.25;77.67
71857;BME280;63344;46.980;28.882;2023-02-10T03:58:12;102894.00;;;-11.29;77.59
71857;BME280;63344;46.980;28.882;2023-02-10T04:00:39;102901.19;;;-11.25;78.58
71857;BME280;63344;46.980;28.882;2023-02-10T04:03:08;102894.53;;;-11.23;78.41
71857;BME280;63344;46.980;28.882;2023-02-10T04:05:35;102898.13;;;-11.20;79.05
71857;BME280;63344;46.980;28.882;2023-02-10T04:08:02;102894.16;;;-11.17;78.81
71857;BME280;63344;46.980;28.882;2023-02-10T04:10:30;102889.69;;;-11.19;78.93
71857;BME280;63344;46.980;28.882;2023-02-10T04:12:57;102884.53;;;-11.19;78.78
71857;BME280;63344;46.980;28.882;2023-02-10T04:15:24;102885.19;;;-11.22;79.09
71857;BME280;63344;46.980;28.882;2023-02-10T04:17:52;102880.69;;;-11.25;78.98
71857;BME280;63344;46.980;28.882;2023-02-10T04:20:19;102881.19;;;-11.29;78.86
71857;BME280;63344;46.980;28.882;2023-02-10T04:22:49;102878.75;;;-11.27;78.66
71857;BME280;63344;46.980;28.882;2023-02-10T04:25:17;102875.16;;;-11.29;78.70
71857;BME280;63344;46.980;28.882;2023-02-10T04:27:44;102863.06;;;-11.40;78.43
71857;BME280;63344;46.980;28.882;2023-02-10T04:30:11;102868.88;;;-11.33;78.63
71857;BME280;63344;46.980;28.882;2023-02-10T04:32:39;102871.94;;;-11.37;78.55
71857;BME280;63344;46.980;28.882;2023-02-10T04:35:07;102868.47;;;-11.37;78.38
71857;BME280;63344;46.980;28.882;2023-02-10T04:37:34;102868.34;;;-11.39;78.41
71857;BME280;63344;46.980;28.882;2023-02-10T04:40:02;102868.84;;;-11.43;78.52
71857;BME280;63344;46.980;28.882;2023-02-10T04:42:29;102852.78;;;-11.51;77.93
71857;BME280;63344;46.980;28.882;2023-02-10T04:44:58;102879.84;;;-11.44;78.00
71857;BME280;63344;46.980;28.882;2023-02-10T04:47:26;102866.13;;;-11.55;77.72
71857;BME280;63344;46.980;28.882;2023-02-10T04:49:55;102867.50;;;-11.58;77.54
71857;BME280;63344;46.980;28.882;2023-02-10T04:52:24;102873.56;;;-11.58;77.44
71857;BME280;63344;46.980;28.882;2023-02-10T04:54:51;102875.09;;;-11.60;77.42
71857;BME280;63344;46.980;28.882;2023-02-10T04:57:20;102872.09;;;-11.65;77.34
71857;BME280;63344;46.980;28.882;2023-02-10T05:00:04;102871.97;;;-11.66;77.38
71857;BME280;63344;46.980;28.882;2023-02-10T05:02:32;102879.78;;;-11.65;77.58
71857;BME280;63344;46.980;28.882;2023-02-10T05:04:59;102876.69;;;-11.71;77.75
71857;BME280;63344;46.980;28.882;2023-02-10T05:07:26;102885.91;;;-11.73;78.02
71857;BME280;63344;46.980;28.882;2023-02-10T05:09:54;102861.41;;;-11.79;77.58
71857;BME280;63344;46.980;28.882;2023-02-10T05:12:24;102879.41;;;-11.69;78.17
71857;BME280;63344;46.980;28.882;2023-02-10T05:14:51;102867.81;;;-11.74;78.19
71857;BME280;63344;46.980;28.882;2023-02-10T05:17:18;102876.53;;;-11.72;78.32
71857;BME280;63344;46.980;28.882;2023-02-10T05:19:47;102875.94;;;-11.70;78.09
71857;BME280;63344;46.980;28.882;2023-02-10T05:22:15;102866.53;;;-11.79;78.02
71857;BME280;63344;46.980;28.882;2023-02-10T05:24:42;102875.66;;;-11.73;78.27
71857;BME280;63344;46.980;28.882;2023-02-10T05:27:11;102880.97;;;-11.61;78.67
71857;BME280;63344;46.980;28.882;2023-02-10T05:30:13;102888.78;;;-11.59;78.55
71857;BME280;63344;46.980;28.882;2023-02-10T05:32:56;102883.16;;;-11.55;78.07
71857;BME280;63344;46.980;28.882;2023-02-10T05:35:31;102888.94;;;-11.58;78.47
71857;BME280;63344;46.980;28.882;2023-02-10T05:38:03;102887.94;;;-11.50;78.06
71857;BME280;63344;46.980;28.882;2023-02-10T05:40:33;102887.28;;;-11.47;78.78
71857;BME280;63344;46.980;28.882;2023-02-10T05:43:04;102892.59;;;-11.35;78.59
71857;BME280;63344;46.980;28.882;2023-02-10T05:46:04;102895.69;;;-11.29;78.89
71857;BME280;63344;46.980;28.882;2023-02-10T05:48:46;102903.16;;;-11.22;78.53
71857;BME280;63344;46.980;28.882;2023-02-10T05:51:33;102894.53;;;-11.23;78.78
71857;BME280;63344;46.980;28.882;2023-02-10T05:54:16;102890.19;;;-11.24;79.01
71857;BME280;63344;46.980;28.882;2023-02-10T05:56:55;102893.28;;;-11.17;78.33
71857;BME280;63344;46.980;28.882;2023-02-10T05:59:28;102885.81;;;-11.14;78.43
71857;BME280;63344;46.980;28.882;2023-02-10T06:01:55;102889.69;;;-11.09;78.40
71857;BME280;63344;46.980;28.882;2023-02-10T06:04:25;102886.09;;;-11.01;78.82
71857;BME280;63344;46.980;28.882;2023-02-10T06:06:55;102892.66;;;-10.94;78.77
71857;BME280;63344;46.980;28.882;2023-02-10T06:09:23;102893.44;;;-10.85;78.66
71857;BME280;63344;46.980;28.882;2023-02-10T06:11:54;102890.63;;;-10.78;78.58
71857;BME280;63344;46.980;28.882;2023-02-10T06:14:21;102894.75;;;-10.70;78.89
71857;BME280;63344;46.980;28.882;2023-02-10T06:16:49;102884.84;;;-10.65;78.63
71857;BME280;63344;46.980;28.882;2023-02-10T06:19:16;102885.34;;;-10.49;79.00
71857;BME280;63344;46.980;28.882;2023-02-10T06:21:47;102891.50;;;-10.36;78.82
71857;BME280;63344;46.980;28.882;2023-02-10T06:24:15;102883.78;;;-10.26;78.45
71857;BME280;63344;46.980;28.882;2023-02-10T06:26:42;102874.00;;;-10.20;78.60
71857;BME280;63344;46.980;28.882;2023-02-10T06:29:16;102875.22;;;-10.05;78.47
71857;BME280;63344;46.980;28.882;2023-02-10T06:31:45;102865.84;;;-9.94;78.71
71857;BME280;63344;46.980;28.882;2023-02-10T06:34:28;102856.03;;;-9.88;78.82
71857;BME280;63344;46.980;28.882;2023-02-10T06:36:55;102839.56;;;-9.79;78.75
71857;BME280;63344;46.980;28.882;2023-02-10T06:39:23;102849.38;;;-9.64;78.67
71857;BME280;63344;46.980;28.882;2023-02-10T06:41:50;102835.19;;;-9.58;78.71
71857;BME280;63344;46.980;28.882;2023-02-10T06:44:17;102843.09;;;-9.45;78.53
71857;BME280;63344;46.980;28.882;2023-02-10T06:46:45;102848.44;;;-9.32;79.00
71857;BME280;63344;46.980;28.882;2023-02-10T06:49:12;102848.72;;;-9.17;78.63
71857;BME280;63344;46.980;28.882;2023-02-10T06:51:40;102844.28;;;-9.08;78.65
71857;BME280;63344;46.980;28.882;2023-02-10T06:54:07;102838.72;;;-9.02;78.40
71857;BME280;63344;46.980;28.882;2023-02-10T06:56:34;102846.28;;;-8.82;78.63
71857;BME280;63344;46.980;28.882;2023-02-10T06:59:01;102843.94;;;-8.67;78.15
71857;BME280;63344;46.980;28.882;2023-02-10T07:01:29;102829.88;;;-8.60;78.30
71857;BME280;63344;46.980;28.882;2023-02-10T07:03:56;102834.69;;;-8.41;78.08
71857;BME280;63344;46.980;28.882;2023-02-10T07:06:24;102829.53;;;-8.29;77.83
71857;BME280;63344;46.980;28.882;2023-02-10T07:08:57;102838.16;;;-8.17;78.05
71857;BME280;63344;46.980;28.882;2023-02-10T07:11:31;102850.38;;;-8.03;77.92
71857;BME280;63344;46.980;28.882;2023-02-10T07:14:19;102852.84;;;-7.92;77.10
71857;BME280;63344;46.980;28.882;2023-02-10T07:16:51;102840.50;;;-7.85;76.88
71857;BME280;63344;46.980;28.882;2023-02-10T07:19:19;102846.63;;;-7.71;76.84
71857;BME280;63344;46.980;28.882;2023-02-10T07:21:48;102834.06;;;-7.66;76.89
71857;BME280;63344;46.980;28.882;2023-02-10T07:24:16;102838.75;;;-7.49;77.22
71857;BME280;63344;46.980;28.882;2023-02-10T07:26:44;102841.50;;;-7.34;77.90
71857;BME280;63344;46.980;28.882;2023-02-10T07:29:13;102828.56;;;-7.22;77.54
71857;BME280;63344;46.980;28.882;2023-02-10T07:31:46;102820.66;;;-7.12;77.48
71857;BME280;63344;46.980;28.882;2023-02-10T07:34:14;102831.13;;;-6.97;77.19
71857;BME280;63344;46.980;28.882;2023-02-10T07:36:42;102810.97;;;-6.89;77.13
71857;BME280;63344;46.980;28.882;2023-02-10T07:39:09;102818.56;;;-6.79;76.84
71857;BME280;63344;46.980;28.882;2023-02-10T07:41:38;102818.13;;;-6.60;76.78
71857;BME280;63344;46.980;28.882;2023-02-10T07:44:06;102821.72;;;-6.45;76.07
71857;BME280;63344;46.980;28.882;2023-02-10T07:46:35;102811.50;;;-6.30;75.66
71857;BME280;63344;46.980;28.882;2023-02-10T07:49:04;102809.09;;;-6.13;75.54
71857;BME280;63344;46.980;28.882;2023-02-10T07:51:31;102810.91;;;-5.99;75.55
71857;BME280;63344;46.980;28.882;2023-02-10T07:53:59;102810.94;;;-5.84;75.17
71857;BME280;63344;46.980;28.882;2023-02-10T07:56:40;102802.56;;;-5.67;74.73
71857;BME280;63344;46.980;28.882;2023-02-10T07:59:07;102808.50;;;-5.54;74.55
71857;BME280;63344;46.980;28.882;2023-02-10T08:01:34;102804.94;;;-5.42;73.97
71857;BME280;63344;46.980;28.882;2023-02-10T08:04:15;102799.63;;;-5.30;73.55
71857;BME280;63344;46.980;28.882;2023-02-10T08:06:43;102803.78;;;-5.18;73.43
71857;BME280;63344;46.980;28.882;2023-02-10T08:09:11;102772.88;;;-5.15;73.48
71857;BME280;63344;46.980;28.882;2023-02-10T08:11:38;102781.59;;;-4.85;71.56
71857;BME280;63344;46.980;28.882;2023-02-10T08:14:06;102775.00;;;-4.65;70.03
71857;BME280;63344;46.980;28.882;2023-02-10T08:16:34;102779.19;;;-4.52;68.94
71857;BME280;63344;46.980;28.882;2023-02-10T08:19:01;102778.91;;;-4.27;66.70
71857;BME280;63344;46.980;28.882;2023-02-10T08:21:29;102779.38;;;-4.03;65.22
71857;BME280;63344;46.980;28.882;2023-02-10T08:23:57;102757.91;;;-3.84;64.10
71857;BME280;63344;46.980;28.882;2023-02-10T08:26:28;102767.84;;;-3.61;62.83
71857;BME280;63344;46.980;28.882;2023-02-10T08:28:58;102753.44;;;-3.55;62.61
71857;BME280;63344;46.980;28.882;2023-02-10T08:31:26;102757.88;;;-3.36;61.88
71857;BME280;63344;46.980;28.882;2023-02-10T08:33:55;102758.59;;;-3.23;59.69
71857;BME280;63344;46.980;28.882;2023-02-10T08:36:23;102762.66;;;-3.11;60.49
71857;BME280;63344;46.980;28.882;2023-02-10T08:38:53;102764.19;;;-2.98;60.86
71857;BME280;63344;46.980;28.882;2023-02-10T08:41:23;102773.81;;;-2.79;60.50
71857;BME280;63344;46.980;28.882;2023-02-10T08:43:53;102776.22;;;-2.66;60.13
71857;BME280;63344;46.980;28.882;2023-02-10T08:46:22;102771.56;;;-2.55;59.15
71857;BME280;63344;46.980;28.882;2023-02-10T08:48:49;102768.06;;;-2.38;58.48
71857;BME280;63344;46.980;28.882;2023-02-10T08:51:17;102760.13;;;-2.23;56.91
71857;BME280;63344;46.980;28.882;2023-02-10T08:53:49;102768.81;;;-2.05;55.07
71857;BME280;63344;46.980;28.882;2023-02-10T08:56:18;102761.72;;;-1.89;52.75
71857;BME280;63344;46.980;28.882;2023-02-10T08:58:49;102765.09;;;-1.72;51.71
71857;BME280;63344;46.980;28.882;2023-02-10T09:01:22;102753.47;;;-1.61;51.27
71857;BME280;63344;46.980;28.882;2023-02-10T09:03:56;102764.81;;;-1.41;50.79
71857;BME280;63344;46.980;28.882;2023-02-10T09:06:31;102754.75;;;-1.32;49.97
71857;BME280;63344;46.980;28.882;2023-02-10T09:09:05;102764.81;;;-1.22;48.88
71857;BME280;63344;46.980;28.882;2023-02-10T09:11:39;102763.50;;;-1.12;48.95
71857;BME280;63344;46.980;28.882;2023-02-10T09:14:07;102757.28;;;-0.94;48.04
71857;BME280;63344;46.980;28.882;2023-02-10T09:16:36;102760.81;;;-0.73;47.64
71857;BME280;63344;46.980;28.882;2023-02-10T09:19:04;102755.06;;;-0.64;46.99
71857;BME280;63344;46.980;28.882;2023-02-10T09:21:32;102756.50;;;-0.51;46.69
71857;BME280;63344;46.980;28.882;2023-02-10T09:24:14;102754.38;;;-0.39;46.37
71857;BME280;63344;46.980;28.882;2023-02-10T09:26:44;102748.84;;;-0.26;45.21
71857;BME280;63344;46.980;28.882;2023-02-10T09:29:12;102742.38;;;-0.13;45.09
71857;BME280;63344;46.980;28.882;2023-02-10T09:31:55;102721.88;;;1.44;44.48
71857;BME280;63344;46.980;28.882;2023-02-10T09:34:24;102714.97;;;4.45;41.85
71857;BME280;63344;46.980;28.882;2023-02-10T09:36:51;102709.13;;;6.94;38.53
71857;BME280;63344;46.980;28.882;2023-02-10T09:39:18;102705.84;;;8.70;33.21
71857;BME280;63344;46.980;28.882;2023-02-10T09:44:32;102698.34;;;10.97;29.77
71857;BME280;63344;46.980;28.882;2023-02-10T09:55:28;102680.50;;;13.31;23.88
71857;BME280;63344;46.980;28.882;2023-02-10T09:58:02;102681.66;;;14.13;24.08
71857;BME280;63344;46.980;28.882;2023-02-10T10:00:41;102670.66;;;13.83;23.69
71857;BME280;63344;46.980;28.882;2023-02-10T10:03:17;102670.44;;;14.38;23.00
71857;BME280;63344;46.980;28.882;2023-02-10T10:13:49;102655.78;;;16.57;21.23
71857;BME280;63344;46.980;28.882;2023-02-10T10:16:45;102660.31;;;16.85;19.65
71857;BME280;63344;46.980;28.882;2023-02-10T10:33:27;102651.81;;;14.73;20.32
71857;BME280;63344;46.980;28.882;2023-02-10T10:35:55;102650.09;;;13.88;20.87
71857;BME280;63344;46.980;28.882;2023-02-10T10:38:31;102643.94;;;14.27;21.13
71857;BME280;63344;46.980;28.882;2023-02-10T10:41:06;102620.66;;;15.43;20.52
71857;BME280;63344;46.980;28.882;2023-02-10T10:43:46;102639.56;;;15.02;20.31
71857;BME280;63344;46.980;28.882;2023-02-10T10:46:28;102640.56;;;14.59;20.82
71857;BME280;63344;46.980;28.882;2023-02-10T10:48:57;102625.25;;;13.83;21.40
71857;BME280;63344;46.980;28.882;2023-02-10T10:51:24;102619.97;;;13.33;21.11
71857;BME280;63344;46.980;28.882;2023-02-10T10:54:04;102622.91;;;11.99;23.13
71857;BME280;63344;46.980;28.882;2023-02-10T10:56:59;102611.50;;;11.83;22.88
71857;BME280;63344;46.980;28.882;2023-02-10T11:03:02;102627.13;;;9.95;24.79
71857;BME280;63344;46.980;28.882;2023-02-10T11:08:55;102612.16;;;9.73;25.91
71857;BME280;63344;46.980;28.882;2023-02-10T11:11:40;102616.31;;;10.43;24.77
71857;BME280;63344;46.980;28.882;2023-02-10T11:14:17;102606.00;;;9.52;24.21
71857;BME280;63344;46.980;28.882;2023-02-10T11:16:53;102610.50;;;8.92;25.77
71857;BME280;63344;46.980;28.882;2023-02-10T11:19:24;102605.28;;;10.94;25.09
71857;BME280;63344;46.980;28.882;2023-02-10T11:22:01;102592.75;;;12.60;22.96
71857;BME280;63344;46.980;28.882;2023-02-10T11:24:33;102584.75;;;11.97;23.16
71857;BME280;63344;46.980;28.882;2023-02-10T11:27:14;102584.19;;;11.67;23.64
71857;BME280;63344;46.980;28.882;2023-02-10T11:29:54;102594.31;;;13.23;22.85
71857;BME280;63344;46.980;28.882;2023-02-10T11:32:27;102573.59;;;12.32;23.07
71857;BME280;63344;46.980;28.882;2023-02-10T11:34:58;102585.59;;;13.13;22.22
71857;BME280;63344;46.980;28.882;2023-02-10T11:37:28;102582.63;;;14.19;22.21
71857;BME280;63344;46.980;28.882;2023-02-10T11:40:27;102574.78;;;13.69;22.09
71857;BME280;63344;46.980;28.882;2023-02-10T11:43:00;102580.63;;;12.93;22.31
71857;BME280;63344;46.980;28.882;2023-02-10T11:45:33;102577.31;;;12.78;22.53
71857;BME280;63344;46.980;28.882;2023-02-10T11:50:34;102564.78;;;12.28;23.58
71857;BME280;63344;46.980;28.882;2023-02-10T11:53:13;102546.88;;;13.42;22.48
71857;BME280;63344;46.980;28.882;2023-02-10T11:56:02;102547.47;;;14.75;21.74
71857;BME280;63344;46.980;28.882;2023-02-10T11:58:56;102550.31;;;15.67;20.99
71857;BME280;63344;46.980;28.882;2023-02-10T12:01:48;102542.44;;;16.22;20.10
71857;BME280;63344;46.980;28.882;2023-02-10T12:07:24;102539.22;;;12.15;23.26
71857;BME280;63344;46.980;28.882;2023-02-10T12:13:43;102546.50;;;14.01;22.31
71857;BME280;63344;46.980;28.882;2023-02-10T12:16:48;102553.69;;;14.38;21.83
71857;BME280;63344;46.980;28.882;2023-02-10T12:24:57;102551.47;;;10.69;25.05
71857;BME280;63344;46.980;28.882;2023-02-10T12:27:56;102559.03;;;9.87;26.83
71857;BME280;63344;46.980;28.882;2023-02-10T12:39:42;102545.38;;;11.49;25.67
71857;BME280;63344;46.980;28.882;2023-02-10T12:45:23;102555.22;;;11.39;25.46
71857;BME280;63344;46.980;28.882;2023-02-10T12:51:24;102558.28;;;10.99;25.89
71857;BME280;63344;46.980;28.882;2023-02-10T12:53:48;102548.44;;;9.85;26.65
71857;BME280;63344;46.980;28.882;2023-02-10T12:59:00;102557.41;;;9.44;27.25
71857;BME280;63344;46.980;28.882;2023-02-10T13:01:39;102559.88;;;9.95;27.21
71857;BME280;63344;46.980;28.882;2023-02-10T13:06:50;102538.44;;;10.30;26.34
71857;BME280;63344;46.980;28.882;2023-02-10T13:09:42;102547.59;;;9.79;27.07
71857;BME280;63344;46.980;28.882;2023-02-10T13:14:42;102544.94;;;9.68;26.94
71857;BME280;63344;46.980;28.882;2023-02-10T13:17:12;102543.25;;;9.51;27.17
71857;BME280;63344;46.980;28.882;2023-02-10T13:20:07;102532.75;;;9.04;27.62
71857;BME280;63344;46.980;28.882;2023-02-10T13:34:33;102519.34;;;7.76;29.19
71857;BME280;63344;46.980;28.882;2023-02-10T13:37:22;102529.88;;;7.61;29.22
71857;BME280;63344;46.980;28.882;2023-02-10T13:39:56;102513.91;;;7.41;29.95
71857;BME280;63344;46.980;28.882;2023-02-10T13:42:29;102519.31;;;7.67;29.43
71857;BME280;63344;46.980;28.882;2023-02-10T13:45:05;102512.38;;;7.93;28.56
71857;BME280;63344;46.980;28.882;2023-02-10T13:55:39;102525.50;;;7.67;26.15
71857;BME280;63344;46.980;28.882;2023-02-10T13:58:25;102526.13;;;7.20;26.12
71857;BME280;63344;46.980;28.882;2023-02-10T14:00:55;102519.16;;;6.18;27.17
71857;BME280;63344;46.980;28.882;2023-02-10T14:03:28;102542.25;;;5.64;27.71
71857;BME280;63344;46.980;28.882;2023-02-10T14:06:08;102531.94;;;5.15;28.66
71857;BME280;63344;46.980;28.882;2023-02-10T14:08:44;102529.84;;;4.93;29.01
71857;BME280;63344;46.980;28.882;2023-02-10T14:11:38;102534.94;;;5.42;29.00
71857;BME280;63344;46.980;28.882;2023-02-10T14:14:31;102548.09;;;5.40;28.88
71857;BME280;63344;46.980;28.882;2023-02-10T14:17:20;102539.84;;;5.17;28.90
71857;BME280;63344;46.980;28.882;2023-02-10T14:19:48;102541.00;;;4.78;29.48
71857;BME280;63344;46.980;28.882;2023-02-10T14:22:31;102544.16;;;4.55;29.96
71857;BME280;63344;46.980;28.882;2023-02-10T14:25:15;102551.75;;;4.38;30.79
71857;BME280;63344;46.980;28.882;2023-02-10T14:27:53;102545.25;;;4.18;32.21
71857;BME280;63344;46.980;28.882;2023-02-10T14:30:36;102540.44;;;3.95;32.86
71857;BME280;63344;46.980;28.882;2023-02-10T14:33:15;102530.31;;;3.73;34.40
71857;BME280;63344;46.980;28.882;2023-02-10T14:35:54;102541.50;;;3.63;35.39
71857;BME280;63344;46.980;28.882;2023-02-10T14:38:30;102535.91;;;3.47;35.33
71857;BME280;63344;46.980;28.882;2023-02-10T14:40:59;102543.34;;;3.27;36.21
71857;BME280;63344;46.980;28.882;2023-02-10T14:43:41;102525.91;;;2.91;37.97
71857;BME280;63344;46.980;28.882;2023-02-10T14:46:18;102542.38;;;2.84;39.01
71857;BME280;63344;46.980;28.882;2023-02-10T14:51:26;102545.03;;;2.51;40.69
71857;BME280;63344;46.980;28.882;2023-02-10T14:54:08;102536.53;;;2.26;41.32
71857;BME280;63344;46.980;28.882;2023-02-10T14:56:41;102553.81;;;2.19;42.20
71857;BME280;63344;46.980;28.882;2023-02-10T14:59:38;102543.81;;;2.05;42.34
71857;BME280;63344;46.980;28.882;2023-02-10T15:02:17;102538.31;;;1.95;42.80
71857;BME280;63344;46.980;28.882;2023-02-10T15:04:48;102544.03;;;1.81;44.17
71857;BME280;63344;46.980;28.882;2023-02-10T15:07:26;102547.31;;;1.73;44.18
71857;BME280;63344;46.980;28.882;2023-02-10T15:09:59;102544.44;;;1.64;44.17
71857;BME280;63344;46.980;28.882;2023-02-10T15:12:41;102555.50;;;1.54;44.51